LIPU METAR and TAF | Updated Today

LIPU METAR

Padova Airport

Observation time: 5:50 hr. ago

LIPU 051450Z 15006KT 9999 BKN035 06/00 Q1032

Need help? Read our tutorial on how to read METARs or read the parsed version below.

Padova Airport (LIPU) METAR

  • Weather conditions on Sun, 05 Feb 2023 14:50:00 +0000 (5:50 hr. ago):
  • Present conditions: Dry
  • Clouds: Broken sky at 1067 meters
  • Visibility: Greater than 10 km
  • Wind: 150 degrees at 6 knots
  • Temperature: 6 celsius
  • Dew point: 0 celsius
  • Pressure: 1032 millibars
  • Remarks: None


Useful to know...

  • Codes: LIPU/QPA
  • Airport elevation: 44ft
  • Municipality: Padova
  • Country: Italy
  • Continent: Europe